Time;durP1;ratioP1;P1;durP2;ratioP2;P2;SDS_P1;SDS_P2;PMS_P1;PMS_P2;Temp;Humidity;BMP_temperature;BMP_pressure;BME280_temperature;BME280_humidity;BME280_pressure;Samples;Min_cycle;Max_cycle;Signal;HPM_P1;HPM_P2
2021/03/16 00:00:21;;;;;;;0.70;0.60;;;4.80;99.90;;;5.69;100.00;-20837.13;5033462;28;20228;-66
2021/03/16 00:03:07;;;;;;;0.60;0.50;;;4.80;99.90;;;5.57;100.00;-20833.78;5032693;28;20225;-69
2021/03/16 00:05:42;;;;;;;0.65;0.60;;;4.90;99.90;;;5.50;100.00;-20831.97;5031721;28;20235;-68
2021/03/16 00:08:09;;;;;;;0.60;0.60;;;4.80;99.90;;;5.32;100.00;-20827.09;5044731;28;20240;-68
2021/03/16 00:10:36;;;;;;;0.60;0.50;;;4.70;99.90;;;5.48;100.00;-20831.28;5036725;28;20190;-69
2021/03/16 00:13:04;;;;;;;0.70;0.60;;;4.80;99.90;;;5.63;100.00;-20835.44;5034720;28;20273;-68
2021/03/16 00:15:31;;;;;;;0.60;0.60;;;4.90;99.90;;;5.58;100.00;-20834.06;5036639;28;20340;-69
2021/03/16 00:17:58;;;;;;;0.60;0.50;;;4.90;99.90;;;5.73;100.00;-20838.22;5034413;28;20754;-67
2021/03/16 00:20:26;;;;;;;3.63;1.23;;;4.90;99.90;;;5.78;100.00;-20839.63;5034399;28;20228;-67
2021/03/16 00:22:53;;;;;;;0.70;0.60;;;5.00;99.90;;;5.80;100.00;-20840.19;5036034;28;20539;-67
2021/03/16 00:25:20;;;;;;;0.70;0.60;;;5.00;99.90;;;5.84;100.00;-20841.00;5036514;28;20376;-67
2021/03/16 00:27:47;;;;;;;0.70;0.60;;;5.00;99.90;;;5.78;100.00;-20839.47;5032905;28;20256;-67
2021/03/16 00:30:16;;;;;;;0.60;0.60;;;5.00;99.90;;;5.80;100.00;-20840.19;5033575;28;20190;-67
2021/03/16 00:32:43;;;;;;;0.60;0.50;;;5.00;99.90;;;5.82;100.00;-20840.59;5036095;28;20221;-67
2021/03/16 00:35:12;;;;;;;0.68;0.60;;;5.00;99.90;;;5.93;100.00;-20843.66;5035554;28;20548;-68
2021/03/16 00:37:38;;;;;;;0.60;0.60;;;5.10;99.90;;;6.04;100.00;-20846.72;5035398;28;20224;-67
2021/03/16 00:40:07;;;;;;;0.65;0.60;;;5.10;99.90;;;5.96;100.00;-20844.34;5036258;28;20179;-69
2021/03/16 00:42:35;;;;;;;0.60;0.60;;;5.20;99.90;;;5.92;100.00;-20843.25;5032034;28;20198;-67
2021/03/16 00:45:02;;;;;;;0.60;0.50;;;5.20;99.90;;;6.06;100.00;-20847.13;5034373;28;20225;-67
2021/03/16 00:47:30;;;;;;;0.60;0.60;;;5.20;99.90;;;5.99;100.00;-20845.19;5035648;28;20806;-68
2021/03/16 00:49:57;;;;;;;0.60;0.50;;;5.20;99.90;;;6.03;100.00;-20846.31;5035549;28;20576;-68
2021/03/16 00:52:25;;;;;;;0.70;0.60;;;5.20;99.90;;;6.13;100.00;-20848.94;5033880;28;20191;-68
2021/03/16 00:54:52;;;;;;;0.60;0.60;;;5.30;99.90;;;6.10;100.00;-20848.25;5034218;28;20198;-67
2021/03/16 00:57:23;;;;;;;0.60;0.60;;;5.30;99.90;;;6.01;100.00;-20845.75;5035373;28;20651;-67
2021/03/16 00:59:50;;;;;;;0.70;0.50;;;5.20;99.90;;;6.05;100.00;-20846.88;5024809;28;20222;-68
2021/03/16 01:02:31;;;;;;;0.70;0.60;;;5.30;99.90;;;5.96;100.00;-20844.34;5017852;28;20681;-67
2021/03/16 01:04:59;;;;;;;0.68;0.60;;;5.20;99.90;;;6.04;100.00;-20846.59;5035433;28;20894;-68
2021/03/16 01:07:27;;;;;;;0.70;0.60;;;5.20;99.90;;;6.04;100.00;-20846.72;5034925;28;20687;-68
2021/03/16 01:09:54;;;;;;;0.70;0.60;;;5.20;99.90;;;6.02;100.00;-20846.16;5034694;28;20277;-67
2021/03/16 01:12:21;;;;;;;0.63;0.57;;;5.20;99.90;;;6.11;100.00;-20848.53;5034813;28;20556;-67
2021/03/16 01:14:48;;;;;;;0.63;0.57;;;5.30;99.90;;;6.20;100.00;-20850.91;5034933;28;20194;-67
2021/03/16 01:17:15;;;;;;;0.60;0.52;;;5.30;99.90;;;6.12;100.00;-20848.81;5035503;28;20610;-67
2021/03/16 01:19:44;;;;;;;0.60;0.60;;;5.30;99.90;;;6.08;100.00;-20847.69;5035080;28;20226;-68
2021/03/16 01:22:12;;;;;;;0.70;0.60;;;5.30;99.90;;;6.16;100.00;-20849.94;5034626;28;20217;-68
2021/03/16 01:24:40;;;;;;;0.65;0.60;;;5.40;99.90;;;6.19;100.00;-20850.63;5050047;28;20190;-68
2021/03/16 01:27:07;;;;;;;0.63;0.60;;;5.30;99.90;;;6.23;100.00;-20851.88;5034090;28;20658;-67
2021/03/16 01:29:34;;;;;;;0.63;0.50;;;5.40;99.90;;;6.23;100.00;-20851.88;5033196;28;20449;-68
2021/03/16 01:32:01;;;;;;;0.70;0.60;;;5.40;99.90;;;6.18;100.00;-20850.47;5034680;28;20265;-67
2021/03/16 01:34:28;;;;;;;0.70;0.68;;;5.40;99.90;;;6.17;100.00;-20850.06;5034760;28;20237;-68
2021/03/16 01:36:56;;;;;;;0.60;0.50;;;5.30;99.90;;;6.21;100.00;-20851.19;5035345;28;20270;-67
2021/03/16 01:39:23;;;;;;;0.63;0.50;;;5.30;99.90;;;6.09;100.00;-20847.97;5033639;28;20194;-67
2021/03/16 01:41:50;;;;;;;0.70;0.60;;;5.30;99.90;;;6.04;100.00;-20846.72;5034641;28;20226;-67
2021/03/16 01:44:17;;;;;;;0.60;0.52;;;5.20;99.90;;;5.97;100.00;-20844.63;5034178;28;20218;-67
2021/03/16 01:46:44;;;;;;;0.67;0.60;;;5.20;99.90;;;6.04;100.00;-20846.72;5033923;28;20198;-67
2021/03/16 01:49:12;;;;;;;0.60;0.50;;;5.20;99.90;;;6.14;100.00;-20849.38;5033561;28;20504;-66
2021/03/16 01:51:38;;;;;;;0.60;0.60;;;5.30;99.90;;;6.15;100.00;-20849.66;5034548;28;20491;-67
2021/03/16 01:54:07;;;;;;;0.60;0.50;;;5.30;99.90;;;6.22;100.00;-20851.44;5034481;28;20424;-69
2021/03/16 01:56:38;;;;;;;0.70;0.60;;;5.40;99.90;;;6.25;100.00;-20852.28;5033970;28;20202;-66
2021/03/16 01:59:25;;;;;;;0.70;0.60;;;5.50;99.90;;;6.17;100.00;-20850.06;5032428;28;20272;-67
2021/03/16 02:02:11;;;;;;;0.70;0.60;;;5.40;99.90;;;6.20;100.00;-20851.03;5015266;28;20681;-67
2021/03/16 02:04:57;;;;;;;0.60;0.50;;;5.30;99.90;;;6.09;100.00;-20847.97;5014960;28;20225;-67
2021/03/16 02:07:57;;;;;;;0.60;0.50;;;5.20;99.90;;;5.93;100.00;-20843.53;5023636;28;20479;-68
2021/03/16 02:10:58;;;;;;;0.60;0.60;;;5.20;99.90;;;5.90;100.00;-20842.69;5032373;28;20208;-67
2021/03/16 02:13:55;;;;;;;0.60;0.50;;;5.20;99.90;;;5.85;100.00;-20841.28;5027000;28;20467;-68
2021/03/16 02:16:52;;;;;;;0.60;0.50;;;5.10;99.90;;;5.77;100.00;-20839.22;5034372;28;20205;-68
2021/03/16 02:20:02;;;;;;;0.70;0.60;;;5.00;99.90;;;5.69;100.00;-20837.13;5031657;28;20558;-68
2021/03/16 02:22:49;;;;;;;0.60;0.60;;;4.90;99.90;;;5.73;100.00;-20838.22;5034321;28;20208;-68
2021/03/16 02:25:57;;;;;;;0.70;0.60;;;4.90;99.90;;;5.91;100.00;-20842.97;5034754;28;20327;-68
2021/03/16 02:29:07;;;;;;;0.95;0.95;;;5.00;99.90;;;5.90;100.00;-20842.69;5033393;28;20405;-67
2021/03/16 02:31:57;;;;;;;0.70;0.60;;;5.10;99.90;;;5.89;100.00;-20842.41;5031123;28;20213;-68
2021/03/16 02:34:51;;;;;;;0.70;0.60;;;5.10;99.90;;;5.93;100.00;-20843.66;5034051;28;20336;-67
2021/03/16 02:37:38;;;;;;;0.60;0.50;;;5.10;99.90;;;5.92;100.00;-20843.25;5032837;28;20623;-69
2021/03/16 02:40:26;;;;;;;0.60;0.50;;;5.10;99.90;;;5.90;100.00;-20842.69;5032869;28;20276;-68
2021/03/16 02:43:16;;;;;;;0.60;0.60;;;5.10;99.90;;;5.93;100.00;-20843.66;5032733;28;20220;-67
2021/03/16 02:46:05;;;;;;;0.60;0.60;;;5.10;99.90;;;5.78;100.00;-20839.47;5033384;28;20202;-67
2021/03/16 02:48:55;;;;;;;0.63;0.55;;;5.10;99.90;;;5.75;100.00;-20838.78;5032582;28;20225;-67
2021/03/16 02:51:42;;;;;;;0.70;0.60;;;5.00;99.90;;;5.75;100.00;-20838.66;5033620;28;20194;-68
2021/03/16 02:54:28;;;;;;;0.60;0.50;;;5.00;99.90;;;5.60;100.00;-20834.63;5033771;28;20185;-68
2021/03/16 02:57:28;;;;;;;0.60;0.60;;;5.00;99.90;;;5.69;100.00;-20837.13;5032931;28;20279;-68
2021/03/16 03:00:15;;;;;;;0.70;0.60;;;5.00;99.90;;;5.78;100.00;-20839.47;5033398;28;20189;-68
2021/03/16 03:03:04;;;;;;;0.60;0.60;;;5.00;99.90;;;5.80;100.00;-20840.19;5032976;28;20303;-67
2021/03/16 03:05:52;;;;;;;0.60;0.60;;;5.10;99.90;;;5.84;100.00;-20841.16;5046381;28;20209;-67
2021/03/16 03:08:40;;;;;;;0.70;0.60;;;5.00;99.90;;;5.80;100.00;-20840.19;5032511;28;20216;-67
2021/03/16 03:11:25;;;;;;;0.60;0.60;;;5.00;99.90;;;5.89;100.00;-20842.41;5033694;28;20193;-68
2021/03/16 03:14:14;;;;;;;0.70;0.60;;;5.00;99.90;;;5.81;100.00;-20840.31;5032925;28;20221;-67
2021/03/16 03:17:03;;;;;;;0.60;0.60;;;5.00;99.90;;;5.65;100.00;-20836.00;5031985;28;20196;-67
2021/03/16 03:19:51;;;;;;;0.70;0.60;;;4.90;99.90;;;5.62;100.00;-20835.16;5032323;28;20224;-67
2021/03/16 03:23:06;;;;;;;0.60;0.60;;;4.90;99.90;;;5.49;100.00;-20831.56;5033629;28;20221;-67
2021/03/16 03:25:57;;;;;;;0.70;0.60;;;4.80;99.90;;;5.60;100.00;-20834.47;5032154;28;20205;-66
2021/03/16 03:28:46;;;;;;;0.60;0.60;;;4.90;99.90;;;5.61;100.00;-20834.91;5045340;28;20217;-67
2021/03/16 03:31:33;;;;;;;0.63;0.50;;;4.90;99.90;;;5.66;100.00;-20836.28;5030223;28;20248;-67
2021/03/16 03:34:20;;;;;;;0.60;0.60;;;4.90;99.90;;;5.66;100.00;-20836.28;5048774;28;20763;-67
2021/03/16 03:37:08;;;;;;;0.60;0.60;;;4.90;99.90;;;5.76;100.00;-20839.06;5030563;28;20217;-68
2021/03/16 03:39:58;;;;;;;0.60;0.60;;;5.00;99.90;;;5.82;100.00;-20840.59;5031334;28;20209;-69
2021/03/16 03:42:45;;;;;;;0.70;0.60;;;5.00;99.90;;;5.86;100.00;-20841.72;5035113;28;20192;-68
2021/03/16 03:45:33;;;;;;;0.70;0.60;;;5.10;99.90;;;5.91;100.00;-20842.97;5036900;28;20255;-69
2021/03/16 03:48:21;;;;;;;0.60;0.50;;;5.10;99.90;;;5.91;100.00;-20843.09;5036135;28;20583;-69
2021/03/16 03:51:07;;;;;;;0.70;0.60;;;5.10;99.90;;;5.82;100.00;-20840.75;5035775;28;20404;-67
2021/03/16 03:53:55;;;;;;;0.60;0.50;;;5.10;99.90;;;5.99;100.00;-20845.19;5036731;28;20181;-68
2021/03/16 03:56:42;;;;;;;0.68;0.60;;;5.20;99.90;;;6.02;100.00;-20846.16;5037175;28;20316;-69
2021/03/16 03:59:28;;;;;;;0.70;0.60;;;5.20;99.90;;;5.94;100.00;-20843.81;5034497;28;20855;-67
2021/03/16 04:02:15;;;;;;;0.70;0.60;;;5.20;99.90;;;5.90;100.00;-20842.81;5036912;28;20185;-67
2021/03/16 04:05:01;;;;;;;0.70;0.60;;;5.10;99.90;;;5.85;100.00;-20841.28;5037020;28;20358;-67
2021/03/16 04:07:50;;;;;;;0.60;0.50;;;5.10;99.90;;;6.05;100.00;-20846.88;5034765;28;20293;-68
2021/03/16 04:10:38;;;;;;;0.60;0.50;;;5.10;99.90;;;6.05;100.00;-20846.88;5036578;28;20186;-67
2021/03/16 04:13:24;;;;;;;0.60;0.50;;;5.10;99.90;;;6.06;100.00;-20847.13;5035847;28;20574;-67
2021/03/16 04:16:11;;;;;;;0.63;0.55;;;5.10;99.90;;;6.11;100.00;-20848.53;5036221;28;20197;-68
2021/03/16 04:18:57;;;;;;;0.70;0.60;;;5.20;99.90;;;6.08;100.00;-20847.69;5035920;28;20236;-68
2021/03/16 04:21:44;;;;;;;0.70;0.60;;;5.10;99.90;;;5.99;100.00;-20845.19;5036557;28;20272;-67
2021/03/16 04:24:30;;;;;;;0.70;0.60;;;5.10;99.90;;;5.99;100.00;-20845.19;5036258;28;20670;-67
2021/03/16 04:27:17;;;;;;;0.70;0.60;;;5.10;99.90;;;5.97;100.00;-20844.78;5034866;28;20673;-69
2021/03/16 04:30:05;;;;;;;0.60;0.50;;;5.10;99.90;;;5.98;100.00;-20844.91;5034425;28;20208;-67
2021/03/16 04:32:51;;;;;;;0.60;0.50;;;5.10;99.90;;;6.06;100.00;-20847.13;5034593;28;20585;-68
2021/03/16 04:35:37;;;;;;;0.70;0.63;;;5.10;99.90;;;6.02;100.00;-20846.16;5036158;28;20239;-67
2021/03/16 04:38:23;;;;;;;0.60;0.50;;;5.10;99.90;;;5.99;100.00;-20845.19;5035219;28;20769;-67
2021/03/16 04:41:09;;;;;;;0.60;0.50;;;5.00;99.90;;;6.09;100.00;-20847.84;5036035;28;20625;-67
2021/03/16 04:43:55;;;;;;;0.70;0.60;;;5.10;99.90;;;6.07;100.00;-20847.28;5034302;28;20556;-68
2021/03/16 04:46:42;;;;;;;0.63;0.52;;;5.10;99.90;;;6.22;100.00;-20851.44;5035967;28;20758;-69
2021/03/16 04:49:28;;;;;;;0.60;0.50;;;5.10;99.90;;;6.07;100.00;-20847.41;5030245;28;20233;-68
2021/03/16 04:52:13;;;;;;;0.65;0.60;;;5.10;99.90;;;6.09;100.00;-20847.84;5032450;28;20201;-68
2021/03/16 04:54:59;;;;;;;0.70;0.60;;;5.10;99.90;;;6.12;100.00;-20848.66;5035342;28;20601;-67
2021/03/16 04:57:44;;;;;;;0.70;0.60;;;5.10;99.90;;;6.05;100.00;-20846.88;5034841;28;20204;-69
2021/03/16 05:00:31;;;;;;;0.60;0.60;;;5.10;99.90;;;6.14;100.00;-20849.22;5032736;28;20615;-67
2021/03/16 05:03:20;;;;;;;0.60;0.60;;;5.10;99.90;;;6.04;100.00;-20846.59;5031217;28;20275;-68
2021/03/16 05:06:05;;;;;;;0.70;0.60;;;5.10;99.90;;;6.19;100.00;-20850.75;5035082;28;20198;-67
2021/03/16 05:08:51;;;;;;;0.60;0.60;;;5.10;99.90;;;6.01;100.00;-20845.75;5031279;28;20224;-67
2021/03/16 05:11:37;;;;;;;0.68;0.57;;;5.10;99.90;;;6.00;100.00;-20845.63;5035822;28;20188;-67
2021/03/16 05:14:22;;;;;;;0.60;0.57;;;5.10;99.90;;;6.03;100.00;-20846.44;5035637;28;20189;-68
2021/03/16 05:17:09;;;;;;;0.70;0.60;;;5.10;99.90;;;5.86;100.00;-20841.72;5035849;28;20213;-68
2021/03/16 05:19:55;;;;;;;0.60;0.50;;;5.10;99.90;;;5.90;100.00;-20842.69;5035009;28;20217;-67
2021/03/16 05:22:40;;;;;;;0.60;0.50;;;5.10;99.90;;;6.07;100.00;-20847.41;5035423;28;20556;-67
2021/03/16 05:25:26;;;;;;;0.60;0.50;;;5.10;99.90;;;6.12;100.00;-20848.81;5035312;28;20221;-67
2021/03/16 05:28:12;;;;;;;0.65;0.60;;;5.20;99.90;;;6.16;100.00;-20849.94;5035194;28;20320;-67
2021/03/16 05:31:00;;;;;;;0.65;0.60;;;5.20;99.90;;;6.21;100.00;-20851.31;5030676;28;20190;-68
2021/03/16 05:33:47;;;;;;;0.70;0.50;;;5.20;99.90;;;6.10;100.00;-20848.25;5015401;28;20225;-68
2021/03/16 05:36:33;;;;;;;0.65;0.60;;;5.10;99.90;;;6.15;100.00;-20849.66;5019574;28;20201;-67
2021/03/16 05:39:18;;;;;;;0.70;0.70;;;5.20;99.90;;;5.96;100.00;-20844.50;5034667;28;20206;-68
2021/03/16 05:42:08;;;;;;;0.60;0.60;;;5.10;99.90;;;6.13;100.00;-20848.94;5015409;28;20187;-67
2021/03/16 05:44:57;;;;;;;0.70;0.60;;;5.20;99.90;;;6.01;100.00;-20845.88;5019874;28;20279;-67
2021/03/16 05:47:46;;;;;;;0.70;0.60;;;5.10;99.90;;;6.15;100.00;-20849.66;5015176;28;20755;-67
2021/03/16 05:50:34;;;;;;;0.70;0.70;;;5.20;99.90;;;6.12;100.00;-20848.81;5014316;28;20174;-67
2021/03/16 05:53:20;;;;;;;0.60;0.60;;;5.20;99.90;;;6.14;100.00;-20849.22;5015099;28;20186;-67
2021/03/16 05:56:06;;;;;;;0.70;0.60;;;5.20;99.90;;;6.15;100.00;-20849.66;5015334;28;20196;-69
2021/03/16 05:58:52;;;;;;;0.70;0.60;;;5.20;99.90;;;6.17;100.00;-20850.06;5014371;28;20186;-67
2021/03/16 06:01:39;;;;;;;0.60;0.50;;;5.20;99.90;;;6.22;100.00;-20851.44;5015010;28;20658;-67
2021/03/16 06:04:24;;;;;;;0.70;0.60;;;5.20;99.90;;;6.19;100.00;-20850.63;5014770;28;20305;-67
2021/03/16 06:07:12;;;;;;;0.70;0.60;;;5.30;99.90;;;6.25;100.00;-20852.41;5014531;28;20190;-68
2021/03/16 06:09:59;;;;;;;0.60;0.55;;;5.20;99.90;;;6.16;100.00;-20849.78;5015040;28;20305;-67
2021/03/16 06:12:44;;;;;;;0.68;0.60;;;5.20;99.90;;;6.20;100.00;-20850.91;5015137;28;20186;-68
2021/03/16 06:15:32;;;;;;;0.60;0.50;;;5.20;99.90;;;6.14;100.00;-20849.22;5018006;28;20319;-67
2021/03/16 06:18:25;;;;;;;0.70;0.60;;;5.20;99.90;;;6.28;100.00;-20853.25;5034308;28;20440;-67
2021/03/16 06:21:16;;;;;;;0.70;0.60;;;5.20;99.90;;;6.24;100.00;-20852.00;5034645;28;20193;-68
2021/03/16 06:24:04;;;;;;;0.60;0.60;;;5.30;99.90;;;6.30;100.00;-20853.69;5034318;28;20321;-68
2021/03/16 06:26:49;;;;;;;0.60;0.50;;;5.30;99.90;;;6.28;100.00;-20853.13;5031652;28;20568;-67
2021/03/16 06:29:41;;;;;;;0.60;0.50;;;5.30;99.90;;;6.21;100.00;-20851.31;5027190;28;20217;-67
2021/03/16 06:32:34;;;;;;;0.70;0.60;;;5.30;99.90;;;6.31;100.00;-20853.81;5033611;28;20202;-68
2021/03/16 06:35:20;;;;;;;0.60;0.60;;;5.30;99.90;;;6.40;100.00;-20856.47;5034087;28;20397;-67
2021/03/16 06:38:09;;;;;;;0.70;0.60;;;5.40;99.90;;;6.41;100.00;-20856.59;5021054;28;20425;-67
2021/03/16 06:41:09;;;;;;;0.60;0.50;;;5.40;99.90;;;6.65;100.00;-20863.25;5014104;28;20265;-67
2021/03/16 06:43:57;;;;;;;0.65;0.60;;;5.50;99.90;;;6.56;100.00;-20860.63;5014159;28;20488;-67
2021/03/16 06:46:51;;;;;;;0.70;0.60;;;5.50;99.90;;;6.73;100.00;-20865.50;5027231;28;20198;-68
2021/03/16 06:49:38;;;;;;;0.65;0.60;;;5.60;99.90;;;6.80;100.00;-20867.16;5033940;28;20523;-68
2021/03/16 06:52:26;;;;;;;0.70;0.60;;;5.60;99.90;;;6.90;100.00;-20869.94;5034373;28;20654;-68
2021/03/16 06:55:13;;;;;;;0.70;0.60;;;5.60;99.90;;;6.87;100.00;-20869.09;5033773;28;20921;-67
2021/03/16 06:58:08;;;;;;;0.67;0.53;;;5.70;99.90;;;6.97;100.00;-20871.88;5032211;28;21035;-67
2021/03/16 07:01:08;;;;;;;0.63;0.50;;;5.80;99.90;;;7.09;100.00;-20875.22;5033362;28;20422;-67
2021/03/16 07:03:56;;;;;;;0.70;0.60;;;5.80;99.90;;;7.25;100.00;-20879.53;5033952;28;20445;-67
2021/03/16 07:06:42;;;;;;;0.70;0.60;;;5.90;99.90;;;7.35;100.00;-20882.28;5033733;28;20904;-68
2021/03/16 07:09:31;;;;;;;0.70;0.50;;;5.90;99.90;;;7.24;100.00;-20879.25;5033216;28;20982;-67
2021/03/16 07:12:18;;;;;;;0.70;0.50;;;5.90;99.90;;;7.24;100.00;-20879.38;5034000;28;20401;-68
2021/03/16 07:15:07;;;;;;;0.70;0.50;;;6.00;99.90;;;7.39;100.00;-20883.28;5033652;28;20403;-67
2021/03/16 07:17:53;;;;;;;0.70;0.60;;;6.00;99.90;;;7.59;100.00;-20888.81;5012374;28;20408;-67
2021/03/16 07:20:40;;;;;;;0.70;0.60;;;6.10;99.90;;;7.43;100.00;-20884.38;5013720;28;20422;-67
2021/03/16 07:23:28;;;;;;;0.70;0.60;;;6.10;99.90;;;7.35;100.00;-20882.28;5013617;28;20399;-67
2021/03/16 07:26:14;;;;;;;0.70;0.50;;;6.00;99.90;;;7.41;100.00;-20883.81;5029986;28;20446;-67
2021/03/16 07:29:03;;;;;;;0.70;0.50;;;6.10;99.90;;;7.46;100.00;-20885.22;5013818;28;20473;-69
2021/03/16 07:31:51;;;;;;;0.70;0.70;;;6.20;99.90;;;7.44;100.00;-20884.81;5013640;28;20421;-68
2021/03/16 07:34:37;;;;;;;0.70;0.50;;;6.20;99.90;;;7.69;100.00;-20891.59;5013835;28;20531;-68
2021/03/16 07:37:23;;;;;;;0.70;0.60;;;6.30;99.90;;;7.80;100.00;-20894.38;5013423;28;20406;-69
2021/03/16 07:40:09;;;;;;;0.70;0.60;;;6.30;99.90;;;7.99;100.00;-20899.66;5023142;28;20422;-69
2021/03/16 07:42:55;;;;;;;0.70;0.60;;;6.50;99.90;;;7.90;100.00;-20897.16;5033497;28;20412;-67
2021/03/16 07:45:41;;;;;;;0.70;0.57;;;6.50;99.90;;;8.05;100.00;-20901.31;5033353;28;20428;-67
2021/03/16 07:48:30;;;;;;;0.70;0.60;;;6.70;99.90;;;8.22;100.00;-20906.03;5032103;28;20472;-67
2021/03/16 07:51:18;;;;;;;1.00;1.00;;;6.80;99.90;;;8.81;100.00;-20921.84;5013590;28;20397;-68
2021/03/16 07:54:06;;;;;;;0.70;0.60;;;6.90;99.90;;;8.82;100.00;-20922.13;5013486;28;20499;-67
2021/03/16 07:57:01;;;;;;;0.70;0.60;;;7.10;99.90;;;8.96;100.00;-20926.00;5029618;28;20435;-67
2021/03/16 07:59:58;;;;;;;0.70;0.60;;;7.10;99.90;;;8.95;100.00;-20925.72;5028762;28;20430;-67
2021/03/16 08:02:44;;;;;;;0.70;0.60;;;7.20;99.90;;;8.94;100.00;-20925.44;5033150;28;20772;-67
2021/03/16 08:05:41;;;;;;;0.70;0.60;;;7.10;99.90;;;9.02;100.00;-20927.66;5032866;28;20415;-68
2021/03/16 08:08:36;;;;;;;0.70;0.60;;;7.10;99.90;;;9.07;100.00;-20928.91;5033049;28;20450;-67
2021/03/16 08:11:22;;;;;;;0.70;0.60;;;7.00;99.90;;;9.13;100.00;-20930.56;5032626;28;20405;-67
2021/03/16 08:14:08;;;;;;;0.70;0.50;;;7.30;99.90;;;8.93;100.00;-20925.31;5033266;28;20421;-68
2021/03/16 08:16:55;;;;;;;0.70;0.60;;;7.40;99.90;;;9.04;100.00;-20928.22;5033018;28;20423;-67
2021/03/16 08:19:41;;;;;;;0.70;0.60;;;7.30;99.90;;;8.94;100.00;-20925.44;5032733;28;20486;-67
2021/03/16 08:22:31;;;;;;;0.70;0.60;;;7.50;99.90;;;9.27;100.00;-20934.44;5033208;28;20534;-67
2021/03/16 08:25:16;;;;;;;0.70;0.60;;;7.50;99.90;;;9.34;100.00;-20936.25;5032556;28;20459;-67
2021/03/16 08:28:09;;;;;;;0.70;0.60;;;7.50;99.90;;;9.14;100.00;-20931.00;5029128;28;20440;-68
2021/03/16 08:30:55;;;;;;;0.70;0.60;;;7.60;99.90;;;9.57;100.00;-20942.50;5033670;28;20490;-69
2021/03/16 08:33:40;;;;;;;0.70;0.60;;;7.50;99.90;;;9.48;100.00;-20940.13;5036375;28;20458;-67
2021/03/16 08:36:27;;;;;;;0.70;0.50;;;7.50;99.90;;;9.29;100.00;-20934.88;5036728;28;20425;-67
2021/03/16 08:39:21;;;;;;;0.70;0.60;;;7.50;99.90;;;9.77;100.00;-20947.88;5036166;28;20406;-68
2021/03/16 08:42:06;;;;;;;0.70;0.60;;;7.70;99.90;;;10.73;100.00;-20973.91;5036380;28;20553;-67
2021/03/16 08:44:55;;;;;;;0.70;0.70;;;8.60;99.90;;;10.40;100.00;-20965.19;5036846;28;20412;-67
2021/03/16 08:47:41;;;;;;;0.70;0.70;;;8.40;99.90;;;10.18;100.00;-20958.97;5016679;28;20464;-67
2021/03/16 08:50:27;;;;;;;0.70;0.70;;;8.20;99.90;;;10.24;100.00;-20960.75;5016614;28;20420;-69
2021/03/16 08:53:15;;;;;;;0.70;0.60;;;8.10;99.90;;;10.75;100.00;-20974.59;5016279;28;20464;-69
2021/03/16 08:56:02;;;;;;;0.77;0.70;;;8.30;99.90;;;11.71;100.00;-21000.44;5016256;28;20940;-69
2021/03/16 08:58:51;;;;;;;0.80;0.70;;;9.00;99.90;;;12.06;100.00;-21009.97;5018427;28;20538;-68
2021/03/16 09:01:36;;;;;;;0.70;0.60;;;9.10;99.90;;;12.66;100.00;-21026.28;5016318;28;20406;-68
2021/03/16 09:04:22;;;;;;;0.80;0.70;;;9.70;99.90;;;13.35;100.00;-21044.88;5030233;28;20447;-67
2021/03/16 09:07:08;;;;;;;0.70;0.70;;;9.80;99.90;;;12.78;100.00;-21029.44;5036604;28;20431;-69
2021/03/16 09:10:04;;;;;;;0.70;0.70;;;9.40;99.90;;;12.31;100.00;-21016.88;5035953;28;20541;-69
2021/03/16 09:12:51;;;;;;;0.70;0.60;;;9.20;99.90;;;11.90;100.00;-21005.69;5036020;28;20411;-69
2021/03/16 09:15:36;;;;;;;0.80;0.70;;;9.30;99.90;;;11.78;100.00;-21002.38;5036249;28;20425;-67
2021/03/16 09:18:23;;;;;;;0.70;0.60;;;9.00;99.90;;;11.66;100.00;-20999.22;5036017;28;20452;-69
2021/03/16 09:21:09;;;;;;;0.70;0.60;;;8.80;99.90;;;11.06;100.00;-20983.03;5035017;28;20575;-69
2021/03/16 09:24:02;;;;;;;0.70;0.60;;;8.80;99.90;;;10.91;100.00;-20978.88;5034671;28;20439;-69
2021/03/16 09:26:59;;;;;;;0.70;0.60;;;8.70;99.90;;;10.79;100.00;-20975.72;5035700;28;20450;-69
2021/03/16 09:29:45;;;;;;;0.70;0.60;;;8.50;99.90;;;10.46;100.00;-20966.72;5028095;28;20935;-69
2021/03/16 09:32:36;;;;;;;0.70;0.60;;;8.60;99.90;;;10.28;100.00;-20961.88;5035201;28;20889;-69
2021/03/16 09:35:23;;;;;;;0.70;0.60;;;8.50;99.90;;;10.53;100.00;-20968.66;5035348;28;20413;-68
2021/03/16 09:38:09;;;;;;;0.70;0.60;;;8.30;99.90;;;10.13;100.00;-20957.84;5035096;28;20756;-67
2021/03/16 09:40:56;;;;;;;0.70;0.60;;;8.20;99.90;;;10.44;100.00;-20966.16;5034605;28;20516;-69
2021/03/16 09:43:36;;;;;;;0.70;0.60;;;8.50;99.90;;;10.54;100.00;-20968.94;5033406;28;20941;-69
2021/03/16 09:46:10;;;;;;;0.70;0.60;;;8.50;99.90;;;10.80;100.00;-20975.84;5033610;28;20953;-69
2021/03/16 09:48:39;;;;;;;0.70;0.70;;;8.70;99.90;;;10.88;100.00;-20978.06;5034404;28;20474;-69
2021/03/16 09:51:12;;;;;;;0.70;0.60;;;8.80;99.90;;;11.76;100.00;-21001.97;5034132;28;20506;-69
2021/03/16 09:53:45;;;;;;;0.77;0.70;;;9.20;99.90;;;12.18;100.00;-21013.16;5034596;28;20418;-69
2021/03/16 09:56:13;;;;;;;0.70;0.60;;;9.50;99.90;;;13.08;100.00;-21037.59;5034772;28;20502;-69
2021/03/16 09:58:48;;;;;;;0.77;0.70;;;10.00;99.90;;;12.84;100.00;-21031.09;5034485;28;20437;-70
2021/03/16 10:01:21;;;;;;;0.70;0.70;;;10.20;99.90;;;12.33;100.00;-21017.44;5014724;28;20778;-69
2021/03/16 10:03:57;;;;;;;0.70;0.60;;;9.60;99.90;;;12.01;100.00;-21008.75;5014806;28;20964;-69
2021/03/16 10:06:36;;;;;;;0.70;0.70;;;9.20;99.90;;;11.28;100.00;-20988.84;5014840;28;20442;-69
2021/03/16 10:09:15;;;;;;;0.80;0.70;;;9.20;99.90;;;11.74;100.00;-21001.28;5014616;28;20781;-68
2021/03/16 10:11:42;;;;;;;0.70;0.60;;;9.00;99.90;;;11.48;100.00;-20994.38;5018850;28;20891;-67
2021/03/16 10:14:10;;;;;;;0.70;0.70;;;8.80;99.90;;;11.36;100.00;-20991.19;5014931;28;20515;-67
2021/03/16 10:16:39;;;;;;;0.70;0.70;;;8.80;99.90;;;10.79;100.00;-20975.56;5025658;28;20948;-70
2021/03/16 10:19:07;;;;;;;0.80;0.70;;;8.60;99.90;;;11.06;100.00;-20982.91;5034533;28;20987;-69
2021/03/16 10:21:36;;;;;;;0.70;0.60;;;8.60;99.90;;;11.33;100.00;-20990.34;5034354;28;20778;-68
2021/03/16 10:24:06;;;;;;;0.70;0.60;;;8.80;99.90;;;11.35;100.00;-20990.78;5033262;28;20438;-68
2021/03/16 10:26:33;;;;;;;0.70;0.57;;;9.00;99.90;;;11.31;100.00;-20989.81;5032604;28;20556;-68
2021/03/16 10:29:09;;;;;;;0.70;0.70;;;9.20;99.90;;;11.49;100.00;-20994.66;5033858;28;20571;-68
2021/03/16 10:31:37;;;;;;;0.70;0.60;;;9.30;99.90;;;11.12;100.00;-20984.56;5028789;28;20432;-68
2021/03/16 10:34:05;;;;;;;0.70;0.63;;;9.00;99.90;;;11.41;100.00;-20992.44;5014366;28;20449;-68
2021/03/16 10:36:35;;;;;;;0.70;0.60;;;9.10;99.90;;;11.45;100.00;-20993.41;5014290;28;20424;-68
2021/03/16 10:39:04;;;;;;;0.70;0.60;;;9.00;99.90;;;11.70;100.00;-21000.31;5014357;28;20414;-68
2021/03/16 10:41:31;;;;;;;0.70;0.60;;;9.30;99.90;;;12.01;100.00;-21008.75;5014372;28;20451;-68
2021/03/16 10:43:58;;;;;;;0.80;0.70;;;9.50;99.90;;;12.21;100.00;-21014.13;5014268;28;20834;-68
2021/03/16 10:46:25;;;;;;;0.70;0.70;;;9.60;99.90;;;12.78;100.00;-21029.44;5056331;28;20432;-68
2021/03/16 10:48:54;;;;;;;0.70;0.70;;;10.00;99.90;;;13.28;100.00;-21042.97;5031474;28;20534;-69
2021/03/16 10:51:22;;;;;;;0.70;0.60;;;10.00;99.90;;;13.31;100.00;-21043.78;5031822;28;20458;-68
2021/03/16 10:53:50;;;;;;;0.70;0.60;;;10.00;99.90;;;13.10;100.00;-21038.00;5033803;28;20458;-69
2021/03/16 10:56:17;;;;;;;0.70;0.70;;;10.20;99.90;;;13.42;100.00;-21046.81;5033455;28;20439;-68
2021/03/16 10:58:44;;;;;;;0.70;0.60;;;10.50;99.90;;;13.46;100.00;-21047.94;5033839;28;20920;-69
2021/03/16 11:01:13;;;;;;;0.70;0.60;;;10.30;99.90;;;13.00;100.00;-21035.38;5021690;28;20438;-69
2021/03/16 11:03:40;;;;;;;0.70;0.60;;;10.00;99.90;;;13.09;100.00;-21037.72;5045456;28;20445;-69
2021/03/16 11:06:09;;;;;;;0.70;0.70;;;10.20;99.90;;;13.06;100.00;-21037.16;5013681;28;20424;-68
2021/03/16 11:08:36;;;;;;;0.70;0.60;;;10.40;99.90;;;12.76;100.00;-21028.88;5013732;28;20968;-68
2021/03/16 11:11:04;;;;;;;1.53;1.30;;;10.50;99.90;;;12.24;100.00;-21014.94;5028850;28;20426;-68
2021/03/16 11:13:31;;;;;;;0.70;0.60;;;9.90;99.90;;;12.28;100.00;-21015.91;5033728;28;20829;-68
2021/03/16 11:15:58;;;;;;;0.70;0.60;;;9.80;99.90;;;11.90;100.00;-21005.69;5033173;28;20448;-68
2021/03/16 11:18:25;;;;;;;0.70;0.60;;;9.60;99.90;;;11.72;100.00;-21000.72;5032648;28;20460;-68